sensor_id;sensor_type;location;lat;lon;timestamp;P1;durP1;ratioP1;P2;durP2;ratioP2
8337;SDS011;4206;48.634;9.516;2022-11-20T00:00:23;4.23;;;3.10;;
8337;SDS011;4206;48.634;9.516;2022-11-20T00:02:49;4.43;;;3.03;;
8337;SDS011;4206;48.634;9.516;2022-11-20T00:05:15;6.13;;;3.90;;
8337;SDS011;4206;48.634;9.516;2022-11-20T00:07:40;4.70;;;2.63;;
8337;SDS011;4206;48.634;9.516;2022-11-20T00:10:06;4.43;;;2.77;;
8337;SDS011;4206;48.634;9.516;2022-11-20T00:12:32;3.10;;;2.40;;
8337;SDS011;4206;48.634;9.516;2022-11-20T00:14:58;3.70;;;2.57;;
8337;SDS011;4206;48.634;9.516;2022-11-20T00:17:23;3.67;;;2.53;;
8337;SDS011;4206;48.634;9.516;2022-11-20T00:19:49;2.57;;;2.20;;
8337;SDS011;4206;48.634;9.516;2022-11-20T00:22:14;5.70;;;2.57;;
8337;SDS011;4206;48.634;9.516;2022-11-20T00:24:40;3.93;;;2.20;;
8337;SDS011;4206;48.634;9.516;2022-11-20T00:27:06;4.20;;;2.40;;
8337;SDS011;4206;48.634;9.516;2022-11-20T00:29:32;4.03;;;2.50;;
8337;SDS011;4206;48.634;9.516;2022-11-20T00:31:57;3.20;;;2.30;;
8337;SDS011;4206;48.634;9.516;2022-11-20T00:34:23;3.20;;;2.40;;
8337;SDS011;4206;48.634;9.516;2022-11-20T00:36:49;3.77;;;2.60;;
8337;SDS011;4206;48.634;9.516;2022-11-20T00:39:14;4.90;;;2.20;;
8337;SDS011;4206;48.634;9.516;2022-11-20T00:41:40;5.37;;;2.40;;
8337;SDS011;4206;48.634;9.516;2022-11-20T00:44:06;6.03;;;2.13;;
8337;SDS011;4206;48.634;9.516;2022-11-20T00:46:31;3.93;;;1.80;;
8337;SDS011;4206;48.634;9.516;2022-11-20T00:48:57;4.60;;;2.20;;
8337;SDS011;4206;48.634;9.516;2022-11-20T00:51:24;4.03;;;2.57;;
8337;SDS011;4206;48.634;9.516;2022-11-20T00:53:51;2.93;;;1.83;;
8337;SDS011;4206;48.634;9.516;2022-11-20T00:56:17;4.43;;;1.80;;
8337;SDS011;4206;48.634;9.516;2022-11-20T00:58:44;3.20;;;2.23;;
8337;SDS011;4206;48.634;9.516;2022-11-20T01:03:43;2.33;;;1.60;;
8337;SDS011;4206;48.634;9.516;2022-11-20T01:06:11;2.40;;;1.80;;
8337;SDS011;4206;48.634;9.516;2022-11-20T01:08:39;2.47;;;2.10;;
8337;SDS011;4206;48.634;9.516;2022-11-20T01:11:06;1.70;;;1.60;;
8337;SDS011;4206;48.634;9.516;2022-11-20T01:13:33;2.40;;;1.83;;
8337;SDS011;4206;48.634;9.516;2022-11-20T01:18:39;3.40;;;1.90;;
8337;SDS011;4206;48.634;9.516;2022-11-20T01:21:08;1.87;;;1.77;;
8337;SDS011;4206;48.634;9.516;2022-11-20T01:23:37;2.70;;;2.27;;
8337;SDS011;4206;48.634;9.516;2022-11-20T01:26:04;3.53;;;2.40;;
8337;SDS011;4206;48.634;9.516;2022-11-20T01:28:31;5.00;;;3.23;;
8337;SDS011;4206;48.634;9.516;2022-11-20T01:30:58;3.03;;;2.37;;
8337;SDS011;4206;48.634;9.516;2022-11-20T01:33:24;3.00;;;2.10;;
8337;SDS011;4206;48.634;9.516;2022-11-20T01:35:50;3.20;;;1.93;;
8337;SDS011;4206;48.634;9.516;2022-11-20T01:38:17;2.03;;;1.87;;
8337;SDS011;4206;48.634;9.516;2022-11-20T01:40:43;3.87;;;2.00;;
8337;SDS011;4206;48.634;9.516;2022-11-20T01:48:42;4.60;;;2.30;;
8337;SDS011;4206;48.634;9.516;2022-11-20T01:51:15;3.10;;;2.40;;
8337;SDS011;4206;48.634;9.516;2022-11-20T01:53:48;3.70;;;2.70;;
8337;SDS011;4206;48.634;9.516;2022-11-20T01:56:14;6.83;;;2.53;;
8337;SDS011;4206;48.634;9.516;2022-11-20T01:58:42;5.20;;;2.50;;
8337;SDS011;4206;48.634;9.516;2022-11-20T02:01:13;4.70;;;2.60;;
8337;SDS011;4206;48.634;9.516;2022-11-20T02:03:39;2.77;;;2.50;;
8337;SDS011;4206;48.634;9.516;2022-11-20T02:08:37;6.30;;;2.60;;
8337;SDS011;4206;48.634;9.516;2022-11-20T02:11:03;6.97;;;3.50;;
8337;SDS011;4206;48.634;9.516;2022-11-20T02:13:28;5.10;;;2.37;;
8337;SDS011;4206;48.634;9.516;2022-11-20T02:16:11;3.53;;;2.90;;
8337;SDS011;4206;48.634;9.516;2022-11-20T02:18:40;3.60;;;2.13;;
8337;SDS011;4206;48.634;9.516;2022-11-20T02:21:13;3.43;;;2.63;;
8337;SDS011;4206;48.634;9.516;2022-11-20T02:26:38;4.97;;;2.60;;
8337;SDS011;4206;48.634;9.516;2022-11-20T02:29:09;4.53;;;2.80;;
8337;SDS011;4206;48.634;9.516;2022-11-20T02:31:36;5.43;;;2.67;;
8337;SDS011;4206;48.634;9.516;2022-11-20T02:34:05;5.07;;;3.20;;
8337;SDS011;4206;48.634;9.516;2022-11-20T02:36:31;4.13;;;2.77;;
8337;SDS011;4206;48.634;9.516;2022-11-20T02:39:00;12.23;;;3.27;;
8337;SDS011;4206;48.634;9.516;2022-11-20T02:41:34;5.07;;;3.43;;
8337;SDS011;4206;48.634;9.516;2022-11-20T02:44:02;5.30;;;3.47;;
8337;SDS011;4206;48.634;9.516;2022-11-20T02:46:29;3.93;;;2.87;;
8337;SDS011;4206;48.634;9.516;2022-11-20T02:48:56;5.27;;;2.67;;
8337;SDS011;4206;48.634;9.516;2022-11-20T02:51:21;3.50;;;3.20;;
8337;SDS011;4206;48.634;9.516;2022-11-20T02:53:48;4.50;;;2.93;;
8337;SDS011;4206;48.634;9.516;2022-11-20T02:56:14;4.80;;;3.20;;
8337;SDS011;4206;48.634;9.516;2022-11-20T02:58:40;3.07;;;2.10;;
8337;SDS011;4206;48.634;9.516;2022-11-20T03:01:05;4.20;;;2.77;;
8337;SDS011;4206;48.634;9.516;2022-11-20T03:03:31;4.73;;;2.70;;
8337;SDS011;4206;48.634;9.516;2022-11-20T03:05:58;3.30;;;2.80;;
8337;SDS011;4206;48.634;9.516;2022-11-20T03:08:24;5.13;;;3.00;;
8337;SDS011;4206;48.634;9.516;2022-11-20T03:10:50;6.70;;;3.03;;
8337;SDS011;4206;48.634;9.516;2022-11-20T03:13:15;4.17;;;2.53;;
8337;SDS011;4206;48.634;9.516;2022-11-20T03:15:41;4.17;;;2.60;;
8337;SDS011;4206;48.634;9.516;2022-11-20T03:18:06;3.73;;;2.40;;
8337;SDS011;4206;48.634;9.516;2022-11-20T03:20:33;6.50;;;1.90;;
8337;SDS011;4206;48.634;9.516;2022-11-20T03:22:59;3.20;;;1.70;;
8337;SDS011;4206;48.634;9.516;2022-11-20T03:25:24;3.93;;;1.93;;
8337;SDS011;4206;48.634;9.516;2022-11-20T03:27:50;3.43;;;2.20;;
8337;SDS011;4206;48.634;9.516;2022-11-20T03:30:16;3.33;;;1.70;;
8337;SDS011;4206;48.634;9.516;2022-11-20T03:32:41;1.93;;;1.73;;
8337;SDS011;4206;48.634;9.516;2022-11-20T03:35:07;5.43;;;2.07;;
8337;SDS011;4206;48.634;9.516;2022-11-20T03:37:33;2.83;;;1.70;;
8337;SDS011;4206;48.634;9.516;2022-11-20T03:39:59;5.80;;;1.90;;
8337;SDS011;4206;48.634;9.516;2022-11-20T03:42:24;1.60;;;1.50;;
8337;SDS011;4206;48.634;9.516;2022-11-20T03:45:06;2.30;;;1.80;;
8337;SDS011;4206;48.634;9.516;2022-11-20T03:47:31;1.53;;;1.40;;
8337;SDS011;4206;48.634;9.516;2022-11-20T03:49:57;2.90;;;1.80;;
8337;SDS011;4206;48.634;9.516;2022-11-20T03:52:23;1.53;;;1.43;;
8337;SDS011;4206;48.634;9.516;2022-11-20T03:54:48;1.67;;;1.57;;
8337;SDS011;4206;48.634;9.516;2022-11-20T03:57:14;1.73;;;1.30;;
8337;SDS011;4206;48.634;9.516;2022-11-20T03:59:39;4.60;;;1.33;;
8337;SDS011;4206;48.634;9.516;2022-11-20T04:02:05;2.70;;;1.23;;
8337;SDS011;4206;48.634;9.516;2022-11-20T04:04:31;1.50;;;1.10;;
8337;SDS011;4206;48.634;9.516;2022-11-20T04:06:56;2.00;;;1.60;;
8337;SDS011;4206;48.634;9.516;2022-11-20T04:09:22;2.47;;;1.40;;
8337;SDS011;4206;48.634;9.516;2022-11-20T04:11:48;4.43;;;1.27;;
8337;SDS011;4206;48.634;9.516;2022-11-20T04:14:14;4.30;;;2.03;;
8337;SDS011;4206;48.634;9.516;2022-11-20T04:16:41;2.47;;;1.13;;
8337;SDS011;4206;48.634;9.516;2022-11-20T04:19:11;3.17;;;1.40;;
8337;SDS011;4206;48.634;9.516;2022-11-20T04:21:39;1.53;;;1.27;;
8337;SDS011;4206;48.634;9.516;2022-11-20T04:24:06;1.60;;;1.10;;
8337;SDS011;4206;48.634;9.516;2022-11-20T04:26:32;1.77;;;1.00;;
8337;SDS011;4206;48.634;9.516;2022-11-20T04:28:58;1.70;;;1.20;;
8337;SDS011;4206;48.634;9.516;2022-11-20T04:31:27;1.00;;;0.90;;
8337;SDS011;4206;48.634;9.516;2022-11-20T04:33:54;0.70;;;0.70;;
8337;SDS011;4206;48.634;9.516;2022-11-20T04:36:24;1.13;;;1.03;;
8337;SDS011;4206;48.634;9.516;2022-11-20T04:38:52;1.30;;;1.20;;
8337;SDS011;4206;48.634;9.516;2022-11-20T04:41:20;2.00;;;1.40;;
8337;SDS011;4206;48.634;9.516;2022-11-20T04:43:47;1.63;;;1.03;;
8337;SDS011;4206;48.634;9.516;2022-11-20T04:46:14;2.57;;;1.13;;
8337;SDS011;4206;48.634;9.516;2022-11-20T04:48:40;1.80;;;1.13;;
8337;SDS011;4206;48.634;9.516;2022-11-20T04:51:05;1.83;;;1.50;;
8337;SDS011;4206;48.634;9.516;2022-11-20T04:53:31;2.73;;;1.30;;
8337;SDS011;4206;48.634;9.516;2022-11-20T04:56:00;3.53;;;1.40;;
8337;SDS011;4206;48.634;9.516;2022-11-20T04:58:27;1.40;;;1.30;;
8337;SDS011;4206;48.634;9.516;2022-11-20T05:00:53;1.60;;;0.90;;
8337;SDS011;4206;48.634;9.516;2022-11-20T05:03:25;2.20;;;1.27;;
8337;SDS011;4206;48.634;9.516;2022-11-20T05:05:50;2.07;;;0.80;;
8337;SDS011;4206;48.634;9.516;2022-11-20T05:08:16;1.33;;;0.93;;
8337;SDS011;4206;48.634;9.516;2022-11-20T05:10:41;1.27;;;1.17;;
8337;SDS011;4206;48.634;9.516;2022-11-20T05:13:07;2.70;;;1.23;;
8337;SDS011;4206;48.634;9.516;2022-11-20T05:15:33;2.33;;;1.30;;
8337;SDS011;4206;48.634;9.516;2022-11-20T05:17:58;1.10;;;1.00;;
8337;SDS011;4206;48.634;9.516;2022-11-20T05:20:24;1.83;;;1.07;;
8337;SDS011;4206;48.634;9.516;2022-11-20T05:22:49;2.80;;;1.20;;
8337;SDS011;4206;48.634;9.516;2022-11-20T05:25:15;2.50;;;1.30;;
8337;SDS011;4206;48.634;9.516;2022-11-20T05:27:40;1.40;;;1.13;;
8337;SDS011;4206;48.634;9.516;2022-11-20T05:30:07;4.33;;;1.10;;
8337;SDS011;4206;48.634;9.516;2022-11-20T05:32:33;6.47;;;1.60;;
8337;SDS011;4206;48.634;9.516;2022-11-20T05:34:59;2.13;;;1.83;;
8337;SDS011;4206;48.634;9.516;2022-11-20T05:37:24;1.70;;;1.30;;
8337;SDS011;4206;48.634;9.516;2022-11-20T05:39:50;2.40;;;1.60;;
8337;SDS011;4206;48.634;9.516;2022-11-20T05:42:15;4.33;;;1.30;;
8337;SDS011;4206;48.634;9.516;2022-11-20T05:44:57;1.40;;;1.20;;
8337;SDS011;4206;48.634;9.516;2022-11-20T05:47:23;2.60;;;0.90;;
8337;SDS011;4206;48.634;9.516;2022-11-20T05:49:49;2.53;;;1.10;;
8337;SDS011;4206;48.634;9.516;2022-11-20T05:52:14;1.30;;;1.07;;
8337;SDS011;4206;48.634;9.516;2022-11-20T05:54:40;1.27;;;0.90;;
8337;SDS011;4206;48.634;9.516;2022-11-20T05:57:06;1.23;;;1.07;;
8337;SDS011;4206;48.634;9.516;2022-11-20T05:59:31;1.13;;;0.90;;
8337;SDS011;4206;48.634;9.516;2022-11-20T06:01:57;2.27;;;0.77;;
8337;SDS011;4206;48.634;9.516;2022-11-20T06:04:22;2.10;;;0.77;;
8337;SDS011;4206;48.634;9.516;2022-11-20T06:06:48;1.60;;;0.80;;
8337;SDS011;4206;48.634;9.516;2022-11-20T06:09:14;1.30;;;0.77;;
8337;SDS011;4206;48.634;9.516;2022-11-20T06:11:39;2.73;;;1.03;;
8337;SDS011;4206;48.634;9.516;2022-11-20T06:14:05;1.63;;;0.80;;
8337;SDS011;4206;48.634;9.516;2022-11-20T06:16:31;2.63;;;0.70;;
8337;SDS011;4206;48.634;9.516;2022-11-20T06:18:56;1.60;;;0.80;;
8337;SDS011;4206;48.634;9.516;2022-11-20T06:21:22;2.10;;;0.90;;
8337;SDS011;4206;48.634;9.516;2022-11-20T06:23:48;3.00;;;0.80;;
8337;SDS011;4206;48.634;9.516;2022-11-20T06:26:16;1.93;;;1.17;;
8337;SDS011;4206;48.634;9.516;2022-11-20T06:28:47;1.00;;;0.80;;
8337;SDS011;4206;48.634;9.516;2022-11-20T06:31:14;1.17;;;0.97;;
8337;SDS011;4206;48.634;9.516;2022-11-20T06:33:42;1.70;;;0.93;;
8337;SDS011;4206;48.634;9.516;2022-11-20T06:36:09;1.00;;;0.90;;
8337;SDS011;4206;48.634;9.516;2022-11-20T06:38:36;2.17;;;1.40;;
8337;SDS011;4206;48.634;9.516;2022-11-20T06:41:03;2.50;;;0.90;;
8337;SDS011;4206;48.634;9.516;2022-11-20T06:43:29;1.20;;;0.80;;
8337;SDS011;4206;48.634;9.516;2022-11-20T06:45:55;3.70;;;1.07;;
8337;SDS011;4206;48.634;9.516;2022-11-20T06:48:23;1.57;;;0.90;;
8337;SDS011;4206;48.634;9.516;2022-11-20T06:50:49;1.50;;;0.93;;
8337;SDS011;4206;48.634;9.516;2022-11-20T06:53:15;5.33;;;0.90;;
8337;SDS011;4206;48.634;9.516;2022-11-20T06:55:42;1.10;;;1.00;;
8337;SDS011;4206;48.634;9.516;2022-11-20T06:58:09;1.00;;;0.83;;
8337;SDS011;4206;48.634;9.516;2022-11-20T07:00:35;1.53;;;1.20;;
8337;SDS011;4206;48.634;9.516;2022-11-20T07:03:02;0.80;;;0.80;;
8337;SDS011;4206;48.634;9.516;2022-11-20T07:05:29;2.83;;;1.20;;
8337;SDS011;4206;48.634;9.516;2022-11-20T07:07:56;1.03;;;0.80;;
8337;SDS011;4206;48.634;9.516;2022-11-20T07:10:22;2.80;;;1.40;;
8337;SDS011;4206;48.634;9.516;2022-11-20T07:12:49;2.03;;;1.00;;
8337;SDS011;4206;48.634;9.516;2022-11-20T07:15:15;2.10;;;0.90;;
8337;SDS011;4206;48.634;9.516;2022-11-20T07:17:41;0.80;;;0.77;;
8337;SDS011;4206;48.634;9.516;2022-11-20T07:20:07;1.60;;;1.47;;
8337;SDS011;4206;48.634;9.516;2022-11-20T07:22:33;1.17;;;0.87;;
8337;SDS011;4206;48.634;9.516;2022-11-20T07:24:59;1.00;;;1.00;;
8337;SDS011;4206;48.634;9.516;2022-11-20T07:27:24;1.23;;;0.80;;
8337;SDS011;4206;48.634;9.516;2022-11-20T07:29:50;1.47;;;1.00;;
8337;SDS011;4206;48.634;9.516;2022-11-20T07:32:16;1.57;;;1.10;;
8337;SDS011;4206;48.634;9.516;2022-11-20T07:34:41;1.47;;;0.83;;
8337;SDS011;4206;48.634;9.516;2022-11-20T07:37:07;1.10;;;0.60;;
8337;SDS011;4206;48.634;9.516;2022-11-20T07:39:33;0.70;;;0.70;;
8337;SDS011;4206;48.634;9.516;2022-11-20T07:41:59;0.70;;;0.67;;
8337;SDS011;4206;48.634;9.516;2022-11-20T07:44:24;0.97;;;0.63;;
8337;SDS011;4206;48.634;9.516;2022-11-20T07:46:50;1.57;;;0.80;;
8337;SDS011;4206;48.634;9.516;2022-11-20T07:49:15;3.23;;;0.70;;
8337;SDS011;4206;48.634;9.516;2022-11-20T07:51:41;1.93;;;0.73;;
8337;SDS011;4206;48.634;9.516;2022-11-20T07:54:06;1.00;;;0.90;;
8337;SDS011;4206;48.634;9.516;2022-11-20T07:56:32;0.80;;;0.67;;
8337;SDS011;4206;48.634;9.516;2022-11-20T07:58:58;1.13;;;0.77;;
8337;SDS011;4206;48.634;9.516;2022-11-20T08:01:23;2.47;;;0.83;;
8337;SDS011;4206;48.634;9.516;2022-11-20T08:03:49;0.93;;;0.80;;
8337;SDS011;4206;48.634;9.516;2022-11-20T08:06:14;3.30;;;0.77;;
8337;SDS011;4206;48.634;9.516;2022-11-20T08:08:40;0.90;;;0.67;;
8337;SDS011;4206;48.634;9.516;2022-11-20T08:11:06;1.43;;;0.63;;
8337;SDS011;4206;48.634;9.516;2022-11-20T08:13:47;0.80;;;0.60;;
8337;SDS011;4206;48.634;9.516;2022-11-20T08:16:28;1.77;;;0.80;;
8337;SDS011;4206;48.634;9.516;2022-11-20T08:18:53;2.00;;;0.80;;
8337;SDS011;4206;48.634;9.516;2022-11-20T08:21:19;1.67;;;0.60;;
8337;SDS011;4206;48.634;9.516;2022-11-20T08:23:45;0.90;;;0.80;;
8337;SDS011;4206;48.634;9.516;2022-11-20T08:26:11;2.20;;;0.70;;
8337;SDS011;4206;48.634;9.516;2022-11-20T08:28:36;1.63;;;0.70;;
8337;SDS011;4206;48.634;9.516;2022-11-20T08:31:02;0.60;;;0.50;;
8337;SDS011;4206;48.634;9.516;2022-11-20T08:33:29;1.20;;;0.67;;
8337;SDS011;4206;48.634;9.516;2022-11-20T08:35:59;0.90;;;0.50;;
8337;SDS011;4206;48.634;9.516;2022-11-20T08:38:25;1.00;;;0.67;;
8337;SDS011;4206;48.634;9.516;2022-11-20T08:40:51;1.53;;;0.50;;
8337;SDS011;4206;48.634;9.516;2022-11-20T08:43:32;1.00;;;0.50;;
8337;SDS011;4206;48.634;9.516;2022-11-20T08:45:58;1.90;;;0.73;;
8337;SDS011;4206;48.634;9.516;2022-11-20T08:48:24;0.63;;;0.63;;
8337;SDS011;4206;48.634;9.516;2022-11-20T08:50:49;0.90;;;0.40;;
8337;SDS011;4206;48.634;9.516;2022-11-20T08:53:15;0.70;;;0.60;;
8337;SDS011;4206;48.634;9.516;2022-11-20T08:55:40;0.80;;;0.50;;
8337;SDS011;4206;48.634;9.516;2022-11-20T08:58:06;0.60;;;0.30;;
8337;SDS011;4206;48.634;9.516;2022-11-20T09:00:32;0.63;;;0.60;;
8337;SDS011;4206;48.634;9.516;2022-11-20T09:02:58;0.97;;;0.57;;
8337;SDS011;4206;48.634;9.516;2022-11-20T09:05:25;0.70;;;0.40;;
8337;SDS011;4206;48.634;9.516;2022-11-20T09:07:52;1.00;;;0.80;;
8337;SDS011;4206;48.634;9.516;2022-11-20T09:10:21;1.20;;;0.70;;
8337;SDS011;4206;48.634;9.516;2022-11-20T09:12:48;0.60;;;0.50;;
8337;SDS011;4206;48.634;9.516;2022-11-20T09:15:15;1.17;;;0.43;;
8337;SDS011;4206;48.634;9.516;2022-11-20T09:17:41;0.80;;;0.50;;
8337;SDS011;4206;48.634;9.516;2022-11-20T09:20:06;0.57;;;0.47;;
8337;SDS011;4206;48.634;9.516;2022-11-20T09:22:33;1.23;;;0.73;;
8337;SDS011;4206;48.634;9.516;2022-11-20T09:24:58;1.63;;;0.80;;
8337;SDS011;4206;48.634;9.516;2022-11-20T09:27:24;1.17;;;1.07;;
8337;SDS011;4206;48.634;9.516;2022-11-20T09:29:49;1.00;;;0.90;;
8337;SDS011;4206;48.634;9.516;2022-11-20T09:32:15;1.50;;;1.00;;
8337;SDS011;4206;48.634;9.516;2022-11-20T09:34:41;1.03;;;0.60;;
8337;SDS011;4206;48.634;9.516;2022-11-20T09:37:07;0.80;;;0.80;;
8337;SDS011;4206;48.634;9.516;2022-11-20T09:39:32;2.83;;;0.60;;
8337;SDS011;4206;48.634;9.516;2022-11-20T09:50:03;1.07;;;0.90;;
8337;SDS011;4206;48.634;9.516;2022-11-20T09:52:44;1.63;;;0.63;;
8337;SDS011;4206;48.634;9.516;2022-11-20T09:55:19;2.07;;;0.57;;
8337;SDS011;4206;48.634;9.516;2022-11-20T09:57:46;4.83;;;0.90;;
8337;SDS011;4206;48.634;9.516;2022-11-20T10:00:14;2.30;;;0.50;;
8337;SDS011;4206;48.634;9.516;2022-11-20T10:02:43;0.60;;;0.60;;
8337;SDS011;4206;48.634;9.516;2022-11-20T10:05:35;0.80;;;0.60;;
8337;SDS011;4206;48.634;9.516;2022-11-20T10:10:46;0.70;;;0.60;;
8337;SDS011;4206;48.634;9.516;2022-11-20T10:19:02;1.23;;;0.60;;
8337;SDS011;4206;48.634;9.516;2022-11-20T10:21:39;0.93;;;0.63;;
8337;SDS011;4206;48.634;9.516;2022-11-20T10:24:26;0.93;;;0.70;;
8337;SDS011;4206;48.634;9.516;2022-11-20T10:29:34;1.70;;;1.23;;
8337;SDS011;4206;48.634;9.516;2022-11-20T10:32:04;1.93;;;0.93;;
8337;SDS011;4206;48.634;9.516;2022-11-20T10:37:16;3.70;;;0.83;;
8337;SDS011;4206;48.634;9.516;2022-11-20T10:39:51;0.90;;;0.70;;
8337;SDS011;4206;48.634;9.516;2022-11-20T10:42:37;2.90;;;1.70;;
8337;SDS011;4206;48.634;9.516;2022-11-20T10:45:13;0.80;;;0.70;;
8337;SDS011;4206;48.634;9.516;2022-11-20T10:47:46;2.10;;;1.03;;
8337;SDS011;4206;48.634;9.516;2022-11-20T10:50:14;2.23;;;1.40;;
8337;SDS011;4206;48.634;9.516;2022-11-20T11:00:25;1.20;;;0.60;;
8337;SDS011;4206;48.634;9.516;2022-11-20T11:02:51;0.80;;;0.70;;
8337;SDS011;4206;48.634;9.516;2022-11-20T11:08:02;0.90;;;0.70;;
8337;SDS011;4206;48.634;9.516;2022-11-20T11:13:20;0.93;;;0.60;;
8337;SDS011;4206;48.634;9.516;2022-11-20T11:15:50;1.37;;;0.60;;
8337;SDS011;4206;48.634;9.516;2022-11-20T11:20:59;0.70;;;0.70;;
8337;SDS011;4206;48.634;9.516;2022-11-20T11:23:28;1.00;;;0.70;;
8337;SDS011;4206;48.634;9.516;2022-11-20T11:26:00;3.67;;;0.80;;
8337;SDS011;4206;48.634;9.516;2022-11-20T11:28:27;0.90;;;0.80;;
8337;SDS011;4206;48.634;9.516;2022-11-20T11:30:53;1.23;;;1.13;;
8337;SDS011;4206;48.634;9.516;2022-11-20T11:33:21;4.57;;;2.80;;
8337;SDS011;4206;48.634;9.516;2022-11-20T11:35:50;2.90;;;1.33;;
8337;SDS011;4206;48.634;9.516;2022-11-20T11:38:21;1.70;;;1.43;;
8337;SDS011;4206;48.634;9.516;2022-11-20T11:40:54;1.33;;;1.10;;
8337;SDS011;4206;48.634;9.516;2022-11-20T11:43:23;0.97;;;0.80;;
8337;SDS011;4206;48.634;9.516;2022-11-20T11:46:11;2.00;;;1.50;;
8337;SDS011;4206;48.634;9.516;2022-11-20T11:51:29;0.80;;;0.60;;
8337;SDS011;4206;48.634;9.516;2022-11-20T11:54:03;2.13;;;1.33;;
8337;SDS011;4206;48.634;9.516;2022-11-20T11:56:38;2.43;;;1.60;;
8337;SDS011;4206;48.634;9.516;2022-11-20T11:59:04;0.80;;;0.70;;
8337;SDS011;4206;48.634;9.516;2022-11-20T12:01:37;5.33;;;2.90;;
8337;SDS011;4206;48.634;9.516;2022-11-20T12:07:09;1.67;;;1.27;;
8337;SDS011;4206;48.634;9.516;2022-11-20T12:09:43;6.50;;;2.37;;
8337;SDS011;4206;48.634;9.516;2022-11-20T12:12:17;3.37;;;1.50;;
8337;SDS011;4206;48.634;9.516;2022-11-20T12:14:47;2.73;;;1.83;;
8337;SDS011;4206;48.634;9.516;2022-11-20T12:17:15;6.90;;;3.47;;
8337;SDS011;4206;48.634;9.516;2022-11-20T12:19:42;5.33;;;2.80;;
8337;SDS011;4206;48.634;9.516;2022-11-20T12:24:41;2.67;;;1.77;;
8337;SDS011;4206;48.634;9.516;2022-11-20T12:32:30;0.90;;;0.67;;
8337;SDS011;4206;48.634;9.516;2022-11-20T12:42:46;0.93;;;0.63;;
8337;SDS011;4206;48.634;9.516;2022-11-20T12:45:39;1.00;;;0.97;;
8337;SDS011;4206;48.634;9.516;2022-11-20T12:48:13;1.93;;;0.90;;
8337;SDS011;4206;48.634;9.516;2022-11-20T13:00:55;1.13;;;0.80;;
8337;SDS011;4206;48.634;9.516;2022-11-20T13:08:19;4.87;;;2.90;;
8337;SDS011;4206;48.634;9.516;2022-11-20T13:10:49;3.83;;;2.07;;
8337;SDS011;4206;48.634;9.516;2022-11-20T13:15:44;3.20;;;0.70;;
8337;SDS011;4206;48.634;9.516;2022-11-20T13:18:13;1.07;;;0.50;;
8337;SDS011;4206;48.634;9.516;2022-11-20T13:20:43;1.33;;;0.30;;
8337;SDS011;4206;48.634;9.516;2022-11-20T13:23:09;2.10;;;0.70;;
8337;SDS011;4206;48.634;9.516;2022-11-20T13:25:37;0.83;;;0.80;;
8337;SDS011;4206;48.634;9.516;2022-11-20T13:28:05;1.50;;;0.70;;
8337;SDS011;4206;48.634;9.516;2022-11-20T13:30:50;1.27;;;0.97;;
8337;SDS011;4206;48.634;9.516;2022-11-20T13:33:27;4.40;;;2.10;;
8337;SDS011;4206;48.634;9.516;2022-11-20T13:35:55;9.20;;;2.80;;
8337;SDS011;4206;48.634;9.516;2022-11-20T13:38:22;1.23;;;0.70;;
8337;SDS011;4206;48.634;9.516;2022-11-20T13:43:49;2.10;;;1.03;;
8337;SDS011;4206;48.634;9.516;2022-11-20T13:46:15;1.37;;;0.70;;
8337;SDS011;4206;48.634;9.516;2022-11-20T13:48:42;1.60;;;1.37;;
8337;SDS011;4206;48.634;9.516;2022-11-20T13:59:01;4.20;;;1.70;;
8337;SDS011;4206;48.634;9.516;2022-11-20T14:01:29;13.33;;;6.13;;
8337;SDS011;4206;48.634;9.516;2022-11-20T14:03:57;1.20;;;1.03;;
8337;SDS011;4206;48.634;9.516;2022-11-20T14:08:51;2.67;;;0.90;;
8337;SDS011;4206;48.634;9.516;2022-11-20T14:11:18;2.40;;;0.93;;
8337;SDS011;4206;48.634;9.516;2022-11-20T14:16:28;3.37;;;0.80;;
8337;SDS011;4206;48.634;9.516;2022-11-20T14:18:55;1.30;;;0.53;;
8337;SDS011;4206;48.634;9.516;2022-11-20T14:21:22;1.13;;;0.50;;
8337;SDS011;4206;48.634;9.516;2022-11-20T14:23:48;2.40;;;0.50;;
8337;SDS011;4206;48.634;9.516;2022-11-20T14:26:15;1.10;;;0.50;;
8337;SDS011;4206;48.634;9.516;2022-11-20T14:28:47;2.40;;;0.70;;
8337;SDS011;4206;48.634;9.516;2022-11-20T14:31:18;3.50;;;0.73;;
8337;SDS011;4206;48.634;9.516;2022-11-20T14:33:50;2.87;;;0.63;;
8337;SDS011;4206;48.634;9.516;2022-11-20T14:36:18;2.67;;;0.73;;
8337;SDS011;4206;48.634;9.516;2022-11-20T14:38:45;1.63;;;1.13;;
8337;SDS011;4206;48.634;9.516;2022-11-20T14:41:21;5.47;;;2.40;;
8337;SDS011;4206;48.634;9.516;2022-11-20T14:43:53;1.67;;;1.30;;
8337;SDS011;4206;48.634;9.516;2022-11-20T14:46:20;1.13;;;0.73;;
8337;SDS011;4206;48.634;9.516;2022-11-20T14:48:47;1.33;;;0.60;;
8337;SDS011;4206;48.634;9.516;2022-11-20T14:53:54;3.57;;;1.93;;
8337;SDS011;4206;48.634;9.516;2022-11-20T14:56:21;1.80;;;0.80;;
8337;SDS011;4206;48.634;9.516;2022-11-20T14:58:55;1.90;;;0.87;;
8337;SDS011;4206;48.634;9.516;2022-11-20T15:01:25;1.93;;;1.13;;
8337;SDS011;4206;48.634;9.516;2022-11-20T15:04:01;2.23;;;1.60;;
8337;SDS011;4206;48.634;9.516;2022-11-20T15:06:28;4.40;;;1.97;;
8337;SDS011;4206;48.634;9.516;2022-11-20T15:08:55;12.57;;;7.37;;
8337;SDS011;4206;48.634;9.516;2022-11-20T15:11:24;24.57;;;14.10;;
8337;SDS011;4206;48.634;9.516;2022-11-20T15:13:51;19.30;;;10.40;;
8337;SDS011;4206;48.634;9.516;2022-11-20T15:16:18;23.90;;;11.93;;
8337;SDS011;4206;48.634;9.516;2022-11-20T15:18:44;6.53;;;2.97;;
8337;SDS011;4206;48.634;9.516;2022-11-20T15:21:11;3.30;;;1.40;;
8337;SDS011;4206;48.634;9.516;2022-11-20T15:23:38;2.83;;;2.03;;
8337;SDS011;4206;48.634;9.516;2022-11-20T15:26:04;22.80;;;12.60;;
8337;SDS011;4206;48.634;9.516;2022-11-20T15:28:32;50.07;;;28.93;;
8337;SDS011;4206;48.634;9.516;2022-11-20T15:30:59;40.10;;;21.47;;
8337;SDS011;4206;48.634;9.516;2022-11-20T15:33:27;24.27;;;13.63;;
8337;SDS011;4206;48.634;9.516;2022-11-20T15:35:53;18.80;;;8.70;;
8337;SDS011;4206;48.634;9.516;2022-11-20T15:38:19;13.57;;;8.33;;
8337;SDS011;4206;48.634;9.516;2022-11-20T15:40:45;24.33;;;12.77;;
8337;SDS011;4206;48.634;9.516;2022-11-20T15:43:11;21.10;;;11.53;;
8337;SDS011;4206;48.634;9.516;2022-11-20T15:45:38;21.53;;;13.70;;
8337;SDS011;4206;48.634;9.516;2022-11-20T15:48:04;19.67;;;11.80;;
8337;SDS011;4206;48.634;9.516;2022-11-20T15:50:35;16.87;;;8.67;;
8337;SDS011;4206;48.634;9.516;2022-11-20T15:53:02;17.53;;;9.03;;
8337;SDS011;4206;48.634;9.516;2022-11-20T15:55:28;10.30;;;6.97;;
8337;SDS011;4206;48.634;9.516;2022-11-20T15:57:54;13.27;;;6.87;;
8337;SDS011;4206;48.634;9.516;2022-11-20T16:00:20;13.37;;;7.20;;
8337;SDS011;4206;48.634;9.516;2022-11-20T16:02:46;9.03;;;5.13;;
8337;SDS011;4206;48.634;9.516;2022-11-20T16:05:12;3.50;;;2.60;;
8337;SDS011;4206;48.634;9.516;2022-11-20T16:07:39;13.40;;;4.73;;
8337;SDS011;4206;48.634;9.516;2022-11-20T16:10:05;7.63;;;4.07;;
8337;SDS011;4206;48.634;9.516;2022-11-20T16:12:31;3.70;;;2.53;;
8337;SDS011;4206;48.634;9.516;2022-11-20T16:15:12;3.87;;;2.70;;
8337;SDS011;4206;48.634;9.516;2022-11-20T16:17:54;7.93;;;5.07;;
8337;SDS011;4206;48.634;9.516;2022-11-20T16:20:19;17.57;;;7.47;;
8337;SDS011;4206;48.634;9.516;2022-11-20T16:22:45;9.00;;;4.23;;
8337;SDS011;4206;48.634;9.516;2022-11-20T16:25:10;6.37;;;4.77;;
8337;SDS011;4206;48.634;9.516;2022-11-20T16:27:36;8.23;;;3.70;;
8337;SDS011;4206;48.634;9.516;2022-11-20T16:30:01;8.70;;;2.90;;
8337;SDS011;4206;48.634;9.516;2022-11-20T16:32:27;12.87;;;4.37;;
8337;SDS011;4206;48.634;9.516;2022-11-20T16:34:53;13.20;;;8.23;;
8337;SDS011;4206;48.634;9.516;2022-11-20T16:37:19;14.13;;;7.40;;
8337;SDS011;4206;48.634;9.516;2022-11-20T16:39:44;12.43;;;6.37;;
8337;SDS011;4206;48.634;9.516;2022-11-20T16:42:10;10.20;;;5.20;;
8337;SDS011;4206;48.634;9.516;2022-11-20T16:44:35;8.40;;;4.80;;
8337;SDS011;4206;48.634;9.516;2022-11-20T16:47:01;5.87;;;3.50;;
8337;SDS011;4206;48.634;9.516;2022-11-20T16:49:26;5.60;;;3.93;;
8337;SDS011;4206;48.634;9.516;2022-11-20T16:51:52;10.10;;;5.70;;
8337;SDS011;4206;48.634;9.516;2022-11-20T16:54:18;9.37;;;6.47;;
8337;SDS011;4206;48.634;9.516;2022-11-20T16:56:43;11.77;;;6.60;;
8337;SDS011;4206;48.634;9.516;2022-11-20T16:59:12;9.27;;;6.03;;
8337;SDS011;4206;48.634;9.516;2022-11-20T17:01:37;9.83;;;5.60;;
8337;SDS011;4206;48.634;9.516;2022-11-20T17:04:05;11.37;;;5.53;;
8337;SDS011;4206;48.634;9.516;2022-11-20T17:06:33;17.80;;;6.83;;
8337;SDS011;4206;48.634;9.516;2022-11-20T17:08:59;9.83;;;5.90;;